Details for UPS at KMIA




Go Back


Latest METAR
Local Time

KMIA 201453Z 09014G22KT 10SM SCT023TCU BKN060 BKN070 27/21 A3032 RMK AO2 SLP267 TCU S-W T02720211 51016

21/02/2018, 09:54:27

Description
Results
UPS Logo
Number of Pilots based at KMIA
0 Pilots Based here
Number of UPS Flights Departed from KMIA
0 Flights Departed
Number of UPS Flights Arrived at KMIA
0 Flights Arrived
Number of UPS Schedules Departing from KMIA
91 Schedules
Number of UPS Schedules Arriving at KMIA
99 Schedules
Number of UPS Schedules Departing from KMIA availible today
15 Schedules Today
Number of UPS Schedules Arriving at KMIA availible today
20 Schedules Today
Average Landing Rate at KMIA
-228 fpm
UPS Average Landing Rate at KMIA
0 fpm
Total Fuel Purchased at KMIA by UPS
0.00 kgs / 0.00 lbs

Pilots Based at KMIA


Pilot ID
Pilot Name
Pilot Rank
No. of Flights
No. of Flying Hours
There are no pilots assigned to this hub!   Will you be the first?
Content